Latest Coastal Weather Observations for Green Cape

IDN60701

Issued at 8:15 am EST Saturday 30 August 2014 (issued every 10 minutes, with the page automatically refreshed every 10 minutes)

About coastal observations | Map of coastal stations | Coastal observations for NSW | Marine services | Other Formats
Station Details ID: 069137 Name: GREEN CAPE AWS Lat: -37.26 Lon: 150.05 Height: 19.4 m
Data from the previous 72 hours. | See also: Recent months at Green Cape
Date/Time
EST
Temp

°C
Wind Pressure Rain
since 9am
mm
Weather Cloud Vis
km
Sea
Height
m
Swell
Dir
 
Speed
knots
Gust
knots
hPa Trend Height
m
Period
s
Dir
30/08:00am 11.7 W 13 15 1027.6 - 0.2 - - - - - - -
30/07:30am 12.5 WSW 14 17 1027.4 - 0.2 - - - - - - -
30/07:00am 11.9 W 13 17 1027.3 - 0.2 - - - - - - -
30/06:30am 11.3 W 15 17 1026.9 - 0.2 - - - - - - -
30/06:00am 11.2 W 14 16 1026.9 - 0.2 - - - - - - -
30/05:30am 11.3 W 15 17 1026.8 - 0.2 - - - - - - -
30/05:00am 11.2 W 14 16 1026.8 - 0.2 - - - - - - -
30/04:30am 10.8 W 14 16 1026.8 - 0.2 - - - - - - -
30/04:00am 11.3 W 14 16 1026.8 - 0.2 - - - - - - -
30/03:30am 11.5 W 14 16 1026.9 - 0.2 - - - - - - -
30/03:00am 11.4 W 13 17 1026.9 - 0.2 Recent precip. - - - - - -
30/02:30am 12.4 WSW 12 15 1027.0 - 0.0 - - - - - - -
30/02:00am 12.5 WSW 12 15 1027.2 - 0.0 - - - - - - -
30/01:30am 12.8 SW 12 14 1027.5 - 0.0 - - - - - - -
30/01:00am 13.3 SW 12 14 1027.5 - 0.0 - - - - - - -
30/12:30am 13.6 S 12 15 1027.5 - 0.0 - - - - - - -
30/12:00am 13.6 S 13 15 1027.7 - 0.0 - - - - - - -
 
Date/Time
EST
Temp

°C
Wind Pressure Rain
since 9am
mm
Weather Cloud Vis
km
Sea
Height
m
Swell
Dir
 
Speed
knots
Gust
knots
hPa Trend Height
m
Period
s
Dir
29/11:30pm 13.8 SSE 12 15 1027.8 - 0.0 - - - - - - -
29/11:00pm 13.9 SSE 14 17 1027.8 - 0.0 - - - - - - -
29/10:30pm 13.8 SSE 11 14 1028.1 - 0.0 - - - - - - -
29/10:00pm 13.9 S 12 14 1028.4 - 0.0 - - - - - - -
29/09:30pm 13.8 S 13 16 1028.3 - 0.0 - - - - - - -
29/09:00pm 14.0 SSE 14 16 1028.3 - 0.0 - - - - - - -
29/08:30pm 13.9 S 13 16 1028.4 - 0.0 - - - - - - -
29/08:00pm 13.7 S 14 17 1028.3 - 0.0 - - - - - - -
29/07:30pm 13.8 S 14 17 1028.2 - 0.0 - - - - - - -
29/07:00pm 13.9 SSE 15 17 1028.1 - 0.0 - - - - - - -
29/06:30pm 14.1 S 16 18 1027.9 - 0.0 - - - - - - -
29/06:00pm 14.2 S 14 17 1027.6 - 0.0 - - - - - - -
29/05:30pm 14.2 S 15 17 1027.3 - 0.0 - - - - - - -
29/05:00pm 14.4 S 15 17 1027.2 - 0.0 - - - - - - -
29/04:30pm 14.9 S 15 18 1027.2 - 0.0 - - - - - - -
29/04:00pm 15.5 S 14 16 1027.2 - 0.0 - - - - - - -
29/03:30pm 15.9 SSE 14 17 1027.2 - 0.0 - - - - - - -
29/03:00pm 16.1 SSE 13 15 1027.2 - 0.0 - - - - - - -
29/02:30pm 16.1 S 14 17 1027.3 - 0.0 - - - - - - -
29/02:00pm 15.5 S 13 15 1027.4 - 0.0 - - - - - - -
29/01:30pm 15.8 S 11 14 1027.7 - 0.0 - - - - - - -
29/01:00pm 16.0 S 9 11 1027.9 - 0.0 - - - - - - -
29/12:30pm 15.3 S 8 9 1028.0 - 0.0 - - - - - - -
29/12:00pm 14.2 SSW 5 6 1028.3 - 0.0 - - - - - - -
29/11:30am 15.8 S 12 18 1028.4 - 0.0 - - - - - - -
29/11:00am 15.9 S 8 11 1028.5 - 0.0 - - - - - - -
29/10:30am 13.9 WSW 6 7 1028.6 - 0.0 - - - - - - -
29/10:00am 13.6 W 6 8 1028.8 - 0.0 - - - - - - -
29/09:30am 13.0 W 7 8 1028.8 - 0.0 - - - - - - -
29/09:00am 12.2 W 8 10 1028.9 - 0.4 - - - - - - -
29/08:30am 11.0 W 10 12 1029.0 - 0.4 - - - - - - -
29/08:00am 10.5 W 10 12 1028.9 - 0.4 - - - - - - -
29/07:30am 10.2 W 10 13 1028.6 - 0.4 - - - - - - -
29/07:00am 9.7 W 12 14 1028.5 - 0.4 - - - - - - -
29/06:30am 9.8 W 10 12 1028.1 - 0.4 - - - - - - -
29/06:00am 9.6 W 9 10 1028.0 - 0.4 Rain - - - - - -
29/05:30am 10.1 W 8 9 1027.7 - 0.2 - - - - - - -
29/05:00am 10.1 W 8 9 1027.7 - 0.2 - - - - - - -
29/04:30am 10.3 W 8 9 1027.7 - 0.2 - - - - - - -
29/04:00am 10.3 W 8 9 1027.6 - 0.2 - - - - - - -
29/03:30am 10.2 W 7 8 1027.5 - 0.2 - - - - - - -
29/03:00am 10.2 W 8 9 1027.6 - 0.2 - - - - - - -
29/02:30am 10.1 W 10 11 1027.7 - 0.2 - - - - - - -
29/02:00am 10.6 W 8 9 1027.9 - 0.2 - - - - - - -
29/01:30am 10.4 W 9 10 1028.1 - 0.2 - - - - - - -
29/01:00am 10.4 W 9 10 1028.4 - 0.2 - - - - - - -
29/12:30am 11.1 W 7 8 1028.5 - 0.2 - - - - - - -
29/12:00am 11.2 W 6 7 1028.7 - 0.2 - - - - - - -
 
Date/Time
EST
Temp

°C
Wind Pressure Rain
since 9am
mm
Weather Cloud Vis
km
Sea
Height
m
Swell
Dir
 
Speed
knots
Gust
knots
hPa Trend Height
m
Period
s
Dir
28/11:30pm 11.3 W 6 7 1028.8 - 0.2 - - - - - - -
28/11:00pm 11.5 W 6 7 1028.9 - 0.2 - - - - - - -
28/10:30pm 11.9 W 4 6 1029.1 - 0.2 - - - - - - -
28/10:00pm 11.8 W 3 4 1029.2 - 0.2 - - - - - - -
28/09:30pm 11.9 W 4 5 1029.4 - 0.2 - - - - - - -
28/09:00pm 12.3 W 4 6 1029.4 - 0.2 - - - - - - -
28/08:30pm 12.5 W 5 6 1029.2 - 0.2 - - - - - - -
28/08:00pm 13.9 NE 3 4 1029.1 - 0.2 - - - - - - -
28/07:30pm 14.1 NE 3 4 1029.0 - 0.2 - - - - - - -
28/07:00pm 14.0 ENE 3 4 1029.0 - 0.2 - - - - - - -
28/06:30pm 14.1 E 2 4 1028.8 - 0.2 - - - - - - -
28/06:00pm 14.3 E 3 4 1028.7 - 0.2 Recent precip. - - - - - -
28/05:30pm 14.4 E 3 5 1028.4 - 0.2 - - - - - - -
28/05:00pm 14.8 ESE 3 4 1028.4 - 0.0 - - - - - - -
28/04:30pm 15.3 E 3 5 1028.2 - 0.0 - - - - - - -
28/04:00pm 15.6 ESE 3 4 1028.2 - 0.0 - - - - - - -
28/03:30pm 15.9 ESE 2 4 1028.3 - 0.0 - - - - - - -
28/03:00pm 16.1 E 2 4 1028.3 - 0.0 - - - - - - -
28/02:30pm 17.1 ESE 3 4 1028.4 - 0.0 - - - - - - -
28/02:00pm 17.1 SE 4 5 1028.5 - 0.0 - - - - - - -
28/01:30pm 18.0 SE 5 6 1028.6 - 0.0 - - - - - - -
28/01:00pm 17.0 SE 4 6 1028.8 - 0.0 - - - - - - -
28/12:30pm 16.8 SE 2 3 1029.1 - 0.0 - - - - - - -
28/12:00pm 16.8 SSE 4 6 1029.6 - 0.0 - - - - - - -
28/11:30am 15.3 SE 1 3 1029.9 - 0.0 - - - - - - -
28/11:00am 14.0 W 4 5 1030.2 - 0.0 - - - - - - -
28/10:30am 13.1 W 9 10 1030.1 - 0.0 - - - - - - -
28/10:00am 12.6 W 9 11 1030.2 - 0.0 - - - - - - -
28/09:30am 12.8 W 9 10 1030.1 - 0.0 - - - - - - -
28/09:00am 11.9 W 8 9 1030.3 - 0.0 - - - - - - -
28/08:30am 11.4 W 7 8 1030.3 - 0.0 - - - - - - -
28/08:00am 11.3 W 9 11 1030.0 - 0.0 - - - - - - -
28/07:30am 11.1 W 11 12 1029.7 - 0.0 - - - - - - -
28/07:00am 10.5 W 12 14 1029.5 - 0.0 - - - - - - -
28/06:30am 10.5 W 12 14 1029.2 - 0.0 - - - - - - -
28/06:00am 10.4 W 11 13 1029.1 - 0.0 - - - - - - -
28/05:30am 10.3 W 11 14 1028.9 - 0.0 - - - - - - -
28/05:00am 10.2 W 11 13 1028.6 - 0.0 - - - - - - -
28/04:30am 10.0 W 11 13 1028.4 - 0.0 - - - - - - -
28/04:00am 10.3 W 10 11 1028.4 - 0.0 - - - - - - -
28/03:30am 10.6 W 10 11 1028.4 - 0.0 - - - - - - -
28/03:00am 10.6 W 8 9 1028.5 - 0.0 - - - - - - -
28/02:30am 10.1 W 10 12 1028.5 - 0.0 - - - - - - -
28/02:00am 10.4 W 9 10 1028.7 - 0.0 - - - - - - -
28/01:30am 10.9 W 7 8 1029.0 - 0.0 - - - - - - -
28/01:00am 11.2 W 8 9 1029.2 - 0.0 - - - - - - -
28/12:30am 10.9 W 8 10 1029.2 - 0.0 - - - - - - -
28/12:00am 11.1 W 9 10 1029.3 - 0.0 - - - - - - -
 
Date/Time
EST
Temp

°C
Wind Pressure Rain
since 9am
mm
Weather Cloud Vis
km
Sea
Height
m
Swell
Dir
 
Speed
knots
Gust
knots
hPa Trend Height
m
Period
s
Dir
27/11:30pm 11.4 W 7 8 1029.3 - 0.0 - - - - - - -
27/11:00pm 11.2 W 7 9 1029.5 - 0.0 - - - - - - -
27/10:30pm 11.6 W 7 9 1029.5 - 0.0 - - - - - - -
27/10:00pm 11.5 W 7 7 1029.5 - 0.0 - - - - - - -
27/09:30pm 11.7 W 8 9 1029.6 - 0.0 - - - - - - -
27/09:00pm 12.0 W 6 7 1029.6 - 0.0 - - - - - - -
27/08:30pm 13.5 S 3 5 1029.4 - 0.0 - - - - - - -
27/08:00pm 14.1 ESE 6 7 1029.4 - 0.0 - - - - - - -
27/07:30pm 14.4 ESE 6 7 1029.4 - 0.0 - - - - - - -
27/07:00pm 14.3 ESE 6 8 1029.2 - 0.0 - - - - - - -
27/06:30pm 14.5 ESE 5 7 1029.0 - 0.0 - - - - - - -
27/06:00pm 14.7 E 5 6 1028.8 - 0.0 - - - - - - -
27/05:30pm 14.8 E 5 6 1028.6 - 0.0 - - - - - - -
27/05:00pm 15.3 SE 5 6 1028.5 - 0.0 - - - - - - -
27/04:30pm 15.5 ESE 5 7 1028.3 - 0.0 - - - - - - -
27/04:00pm 15.8 E 5 6 1028.3 - 0.0 - - - - - - -
27/03:30pm 16.6 E 4 7 1028.3 - 0.0 - - - - - - -
27/03:00pm 16.8 E 5 6 1028.2 - 0.0 - - - - - - -
27/02:30pm 16.5 E 5 7 1028.3 - 0.0 - - - - - - -
27/02:00pm 17.7 E 5 7 1028.4 - 0.0 - - - - - - -
27/01:30pm 18.0 ENE 5 6 1028.5 - 0.0 - - - - - - -
27/01:00pm 17.8 E 6 7 1028.6 - 0.0 - - - - - - -
27/12:30pm 17.9 ESE 5 7 1028.8 - 0.0 - - - - - - -
27/12:00pm 17.8 E 7 9 1029.2 - 0.0 - - - - - - -
27/11:30am 17.2 ESE 8 12 1029.4 - 0.0 - - - - - - -
27/11:00am 16.7 ESE 6 9 1029.6 - 0.0 - - - - - - -
27/10:30am 15.3 W 3 4 1029.8 - 0.0 - - - - - - -
27/10:00am 14.7 WSW 3 4 1029.7 - 0.0 - - - - - - -
27/09:30am 13.9 W 5 5 1029.7 - 0.0 - - - - - - -
27/09:00am 13.1 W 5 6 1029.6 - 0.0 - - - - - - -
27/08:30am 12.4 W 6 8 1029.5 - 0.0 - - - - - - -

Other Formats:

Comma delimited format used in spreadsheet applications
http://www.bom.gov.au/fwo/IDN60701/IDN60701.94934.axf

JavaScript Object Notation format (JSON) in row-major order
http://www.bom.gov.au/fwo/IDN60701/IDN60701.94934.json